createdAt,value
2022-10-22T00:00:29.437Z,2.60
2022-10-22T00:02:59.779Z,3.30
2022-10-22T00:05:11.777Z,4.00
2022-10-22T00:07:23.289Z,2.80
2022-10-22T00:09:33.221Z,0.60
2022-10-22T00:11:43.484Z,0.30
2022-10-22T00:13:53.810Z,0.90
2022-10-22T00:16:03.724Z,0.30
2022-10-22T00:18:13.935Z,0.60
2022-10-22T00:20:24.457Z,0.50
2022-10-22T00:22:35.064Z,1.70
2022-10-22T00:24:45.274Z,1.10
2022-10-22T00:26:55.404Z,1.40
2022-10-22T00:29:05.417Z,2.50
2022-10-22T00:31:16.178Z,1.10
2022-10-22T00:33:26.377Z,0.70
2022-10-22T00:35:36.911Z,0.90
2022-10-22T00:37:47.823Z,0.30
2022-10-22T00:39:58.483Z,0.80
2022-10-22T00:42:09.582Z,3.20
2022-10-22T00:44:58.159Z,1.30
2022-10-22T00:47:09.275Z,2.00
2022-10-22T00:49:22.367Z,1.10
2022-10-22T00:51:36.043Z,2.20
2022-10-22T00:53:49.771Z,4.30
2022-10-22T00:56:00.665Z,4.60
2022-10-22T00:58:10.886Z,3.70
2022-10-22T01:00:21.872Z,2.00
2022-10-22T01:02:31.851Z,3.40
2022-10-22T01:04:42.125Z,4.50
2022-10-22T01:06:52.728Z,1.20
2022-10-22T01:09:12.693Z,1.40
2022-10-22T01:11:28.702Z,1.50
2022-10-22T01:13:49.764Z,2.40
2022-10-22T01:16:07.896Z,3.90
2022-10-22T01:18:24.470Z,5.20
2022-10-22T01:20:56.922Z,4.40
2022-10-22T01:23:21.768Z,7.10
2022-10-22T01:25:37.466Z,6.00
2022-10-22T01:28:03.632Z,6.20
2022-10-22T01:30:16.389Z,8.00
2022-10-22T01:32:28.839Z,5.50
2022-10-22T01:34:41.566Z,6.10
2022-10-22T01:39:02.834Z,7.30
2022-10-22T01:43:21.656Z,5.80
2022-10-22T01:45:35.326Z,4.00
2022-10-22T01:47:56.862Z,4.10
2022-10-22T01:50:25.918Z,2.50
2022-10-22T01:52:49.872Z,2.40
2022-10-22T01:55:13.950Z,1.70
2022-10-22T01:57:31.999Z,2.10
2022-10-22T01:59:52.700Z,3.80
2022-10-22T02:02:07.018Z,3.40
2022-10-22T02:04:23.071Z,3.30
2022-10-22T02:06:35.841Z,3.90
2022-10-22T02:08:47.299Z,4.30
2022-10-22T02:10:59.712Z,3.40
2022-10-22T02:13:16.134Z,2.80
2022-10-22T02:15:29.562Z,5.40
2022-10-22T02:17:42.083Z,6.10
2022-10-22T02:19:57.453Z,4.60
2022-10-22T02:22:08.143Z,3.80
2022-10-22T02:24:18.471Z,5.10
2022-10-22T02:26:35.011Z,12.80
2022-10-22T02:28:54.179Z,14.40
2022-10-22T02:31:09.809Z,14.40
2022-10-22T02:33:24.431Z,5.00
2022-10-22T02:35:35.453Z,6.50
2022-10-22T02:37:46.406Z,11.50
2022-10-22T02:39:58.029Z,4.70
2022-10-22T02:42:08.702Z,2.40
2022-10-22T02:44:22.478Z,0.50
2022-10-22T02:46:35.216Z,0.40
2022-10-22T02:48:46.189Z,0.30
2022-10-22T02:50:56.938Z,0.30
2022-10-22T02:53:07.001Z,0.30
2022-10-22T02:55:17.080Z,0.30
2022-10-22T02:57:27.301Z,0.40
2022-10-22T02:59:38.109Z,0.30
2022-10-22T03:01:50.782Z,0.30
2022-10-22T03:04:00.953Z,0.20
2022-10-22T03:06:11.888Z,0.20
2022-10-22T03:08:22.133Z,0.20
2022-10-22T03:10:33.330Z,0.20
2022-10-22T03:12:44.548Z,0.20
2022-10-22T03:14:54.703Z,0.20
2022-10-22T03:17:04.986Z,0.30
2022-10-22T03:19:15.361Z,0.30
2022-10-22T03:21:34.010Z,0.40
2022-10-22T03:23:45.690Z,0.40
2022-10-22T03:25:55.900Z,0.30
2022-10-22T03:28:09.835Z,0.30
2022-10-22T03:30:19.991Z,0.30
2022-10-22T03:32:30.097Z,0.50
2022-10-22T03:34:40.245Z,0.50
2022-10-22T03:36:51.047Z,0.40
2022-10-22T03:39:01.152Z,0.40
2022-10-22T03:41:11.812Z,0.40
2022-10-22T03:43:22.135Z,0.40
2022-10-22T03:45:32.177Z,0.40
2022-10-22T03:47:42.678Z,0.60
2022-10-22T03:49:53.309Z,0.60
2022-10-22T03:52:07.006Z,0.50
2022-10-22T03:54:20.776Z,0.50
2022-10-22T03:56:30.908Z,0.50
2022-10-22T03:58:41.740Z,0.60
2022-10-22T04:00:52.146Z,0.40
2022-10-22T04:03:02.626Z,0.30
2022-10-22T04:07:24.183Z,0.40
2022-10-22T04:09:35.237Z,0.40
2022-10-22T04:11:45.512Z,0.50
2022-10-22T04:13:55.558Z,0.40
2022-10-22T04:16:13.724Z,0.50
2022-10-22T04:18:25.705Z,0.40
2022-10-22T04:20:35.747Z,0.50
2022-10-22T04:22:45.725Z,0.70
2022-10-22T04:24:56.884Z,0.40
2022-10-22T04:27:07.367Z,0.70
2022-10-22T04:29:17.455Z,0.50
2022-10-22T04:31:28.782Z,0.50
2022-10-22T04:33:39.072Z,0.60
2022-10-22T04:35:49.768Z,0.40
2022-10-22T04:38:00.504Z,0.50
2022-10-22T04:40:12.955Z,0.70
2022-10-22T04:44:30.929Z,0.40
2022-10-22T04:46:41.047Z,0.50
2022-10-22T04:48:51.096Z,0.30
2022-10-22T04:51:03.424Z,0.40
2022-10-22T04:53:13.567Z,0.40
2022-10-22T04:55:23.983Z,0.60
2022-10-22T04:57:35.900Z,0.40
2022-10-22T04:59:46.847Z,0.40
2022-10-22T05:01:56.944Z,0.30
2022-10-22T05:04:08.516Z,0.30
2022-10-22T05:06:19.005Z,0.30
2022-10-22T05:08:28.934Z,0.30
2022-10-22T05:10:39.123Z,0.40
2022-10-22T05:12:49.445Z,0.30
2022-10-22T05:14:59.577Z,0.40
2022-10-22T05:17:09.693Z,0.40
2022-10-22T05:19:24.475Z,0.80
2022-10-22T05:21:34.662Z,0.50
2022-10-22T05:23:45.312Z,0.40
2022-10-22T05:25:55.414Z,0.60
2022-10-22T05:28:05.566Z,6.50
2022-10-22T05:30:19.443Z,0.70
2022-10-22T05:32:29.693Z,0.50
2022-10-22T05:34:39.957Z,0.80
2022-10-22T05:36:50.627Z,1.80
2022-10-22T05:39:01.416Z,1.10
2022-10-22T05:41:13.552Z,0.80
2022-10-22T05:45:31.904Z,0.50
2022-10-22T05:47:42.018Z,0.60
2022-10-22T05:49:52.104Z,1.10
2022-10-22T05:52:02.218Z,1.20
2022-10-22T05:54:17.892Z,0.80
2022-10-22T05:56:29.056Z,0.70
2022-10-22T05:58:40.149Z,0.60
2022-10-22T06:00:50.300Z,0.60
2022-10-22T06:03:00.447Z,1.00
2022-10-22T06:05:11.255Z,3.10
2022-10-22T06:07:21.236Z,1.60
2022-10-22T06:09:33.946Z,1.00
2022-10-22T06:11:44.013Z,0.80
2022-10-22T06:13:56.509Z,1.60
2022-10-22T06:18:14.287Z,0.90
2022-10-22T06:20:24.299Z,1.60
2022-10-22T06:22:35.373Z,0.90
2022-10-22T06:24:45.553Z,0.80
2022-10-22T06:26:56.128Z,1.10
2022-10-22T06:29:06.252Z,1.10
2022-10-22T06:31:16.515Z,1.40
2022-10-22T06:33:26.555Z,1.40
2022-10-22T06:35:36.501Z,1.30
2022-10-22T06:37:47.926Z,0.90
2022-10-22T06:39:57.993Z,1.00
2022-10-22T06:42:08.332Z,0.70
2022-10-22T06:44:20.619Z,0.70
2022-10-22T06:46:32.440Z,1.00
2022-10-22T06:48:42.631Z,1.20
2022-10-22T06:50:53.072Z,0.70
2022-10-22T06:53:03.880Z,0.90
2022-10-22T06:55:14.592Z,1.10
2022-10-22T06:57:24.565Z,1.10
2022-10-22T06:59:34.949Z,0.80
2022-10-22T07:01:44.921Z,0.80
2022-10-22T07:03:56.566Z,0.90
2022-10-22T07:06:08.718Z,1.70
2022-10-22T07:08:19.747Z,0.90
2022-10-22T07:10:30.714Z,0.60
2022-10-22T07:12:41.278Z,0.50
2022-10-22T07:14:52.997Z,0.50
2022-10-22T07:17:03.227Z,0.60
2022-10-22T07:19:13.565Z,1.70
2022-10-22T07:21:24.126Z,0.90
2022-10-22T07:23:34.530Z,0.90
2022-10-22T07:25:45.035Z,1.00
2022-10-22T07:27:55.087Z,0.50
2022-10-22T07:30:05.771Z,0.80
2022-10-22T07:32:17.317Z,0.70
2022-10-22T07:34:29.898Z,0.50
2022-10-22T07:36:40.079Z,0.70
2022-10-22T07:38:51.690Z,0.90
2022-10-22T07:41:02.225Z,1.50
2022-10-22T07:43:12.444Z,1.10
2022-10-22T07:45:22.632Z,0.90
2022-10-22T07:47:32.701Z,1.40
2022-10-22T07:49:44.305Z,1.30
2022-10-22T07:51:54.242Z,1.10
2022-10-22T07:54:04.621Z,1.60
2022-10-22T07:56:14.799Z,1.30
2022-10-22T07:58:25.769Z,1.50
2022-10-22T08:00:36.086Z,1.00
2022-10-22T08:02:46.445Z,1.10
2022-10-22T08:04:57.619Z,1.40
2022-10-22T08:07:07.697Z,1.10
2022-10-22T08:09:17.606Z,1.20
2022-10-22T08:11:28.817Z,2.20
2022-10-22T08:13:42.758Z,0.90
2022-10-22T08:15:57.518Z,0.60
2022-10-22T08:18:08.663Z,1.00
2022-10-22T08:20:18.896Z,1.00
2022-10-22T08:22:28.800Z,1.00
2022-10-22T08:24:39.058Z,1.50
2022-10-22T08:26:49.167Z,0.70
2022-10-22T08:29:00.144Z,0.60
2022-10-22T08:31:10.407Z,0.60
2022-10-22T08:33:20.944Z,0.50
2022-10-22T08:35:31.238Z,1.20
2022-10-22T08:37:41.573Z,0.50
2022-10-22T08:39:51.850Z,0.80
2022-10-22T08:42:16.394Z,0.70
2022-10-22T08:44:51.854Z,0.90
2022-10-22T08:47:20.057Z,0.60
2022-10-22T08:49:38.412Z,1.20
2022-10-22T08:51:51.572Z,0.70
2022-10-22T08:54:21.365Z,0.50
2022-10-22T08:56:32.485Z,0.70
2022-10-22T08:58:51.181Z,0.60
2022-10-22T09:01:05.172Z,1.60
2022-10-22T09:03:44.209Z,2.30
2022-10-22T09:06:03.791Z,1.00
2022-10-22T09:08:17.454Z,0.60
2022-10-22T09:10:34.822Z,0.60
2022-10-22T09:12:45.273Z,0.70
2022-10-22T09:14:55.626Z,0.80
2022-10-22T09:17:28.235Z,0.70
2022-10-22T09:19:49.487Z,1.00
2022-10-22T09:22:10.310Z,2.40
2022-10-22T09:24:29.544Z,0.90
2022-10-22T09:26:43.987Z,0.80
2022-10-22T09:28:56.176Z,0.80
2022-10-22T09:31:11.209Z,0.80
2022-10-22T09:33:26.904Z,0.90
2022-10-22T09:35:45.759Z,1.00
2022-10-22T09:37:58.873Z,1.00
2022-10-22T09:40:16.281Z,1.10
2022-10-22T09:42:27.052Z,1.00
2022-10-22T09:44:42.641Z,0.70
2022-10-22T09:46:55.209Z,1.10
2022-10-22T09:49:12.873Z,1.00
2022-10-22T09:51:27.667Z,1.10
2022-10-22T09:53:43.788Z,1.00
2022-10-22T09:55:59.517Z,1.40
2022-10-22T09:58:15.354Z,1.30
2022-10-22T10:00:27.125Z,0.60
2022-10-22T10:02:39.171Z,0.60
2022-10-22T10:04:52.297Z,0.80
2022-10-22T10:07:02.775Z,0.70
2022-10-22T10:09:20.054Z,0.50
2022-10-22T10:11:38.544Z,0.70
2022-10-22T10:13:55.188Z,0.70
2022-10-22T10:16:17.404Z,0.40
2022-10-22T10:18:41.832Z,0.70
2022-10-22T10:21:02.432Z,0.60
2022-10-22T10:23:24.534Z,1.00
2022-10-22T10:25:51.210Z,1.40
2022-10-22T10:28:16.843Z,0.70
2022-10-22T10:30:27.242Z,0.50
2022-10-22T10:33:05.292Z,0.60
2022-10-22T10:35:24.163Z,0.40
2022-10-22T10:37:39.057Z,0.60
2022-10-22T10:40:10.034Z,0.90
2022-10-22T10:42:29.386Z,0.60
2022-10-22T10:45:04.882Z,0.60
2022-10-22T10:47:31.776Z,0.50
2022-10-22T10:49:45.392Z,0.70
2022-10-22T10:52:03.729Z,0.50
2022-10-22T10:54:35.018Z,0.60
2022-10-22T10:56:52.811Z,0.50
2022-10-22T10:59:18.671Z,0.60
2022-10-22T11:01:36.960Z,0.50
2022-10-22T11:04:02.445Z,0.40
2022-10-22T11:06:17.274Z,0.50
2022-10-22T11:08:31.639Z,0.70
2022-10-22T11:10:47.234Z,0.60
2022-10-22T11:12:59.968Z,0.50
2022-10-22T11:15:18.965Z,0.50
2022-10-22T11:17:34.423Z,0.50
2022-10-22T11:19:54.681Z,0.60
2022-10-22T11:22:13.699Z,0.50
2022-10-22T11:24:30.163Z,0.50
2022-10-22T11:26:47.538Z,1.20
2022-10-22T11:29:00.411Z,0.70
2022-10-22T11:31:17.302Z,0.50
2022-10-22T11:33:30.970Z,0.50
2022-10-22T11:35:44.534Z,0.40
2022-10-22T11:37:57.096Z,0.40
2022-10-22T11:42:23.425Z,0.40
2022-10-22T11:44:35.304Z,0.50
2022-10-22T11:46:49.183Z,0.40
2022-10-22T11:49:27.225Z,0.50
2022-10-22T11:51:43.822Z,0.40
2022-10-22T11:54:00.646Z,0.50
2022-10-22T11:56:27.069Z,0.70
2022-10-22T11:58:45.223Z,0.50
2022-10-22T12:00:55.719Z,0.40
2022-10-22T12:03:18.535Z,0.40
2022-10-22T12:05:48.528Z,0.50
2022-10-22T12:08:03.109Z,0.40
2022-10-22T12:10:22.824Z,0.40
2022-10-22T12:12:41.576Z,0.30
2022-10-22T12:14:59.717Z,0.40
2022-10-22T12:17:14.679Z,1.10
2022-10-22T12:19:31.797Z,2.20
2022-10-22T12:21:44.195Z,0.50
2022-10-22T12:23:55.723Z,0.40
2022-10-22T12:26:08.601Z,0.50
2022-10-22T12:28:18.505Z,0.50
2022-10-22T12:30:32.231Z,0.80
2022-10-22T12:32:43.606Z,0.70
2022-10-22T12:34:54.867Z,0.90
2022-10-22T12:37:09.300Z,0.90
2022-10-22T12:39:22.051Z,0.50
2022-10-22T12:41:37.297Z,0.90
2022-10-22T12:43:47.159Z,0.90
2022-10-22T12:45:58.754Z,1.70
2022-10-22T12:48:16.718Z,1.50
2022-10-22T12:50:33.418Z,1.30
2022-10-22T12:52:44.261Z,2.00
2022-10-22T12:54:55.670Z,7.20
2022-10-22T12:57:06.008Z,6.70
2022-10-22T12:59:22.690Z,6.10
2022-10-22T13:01:38.333Z,5.00
2022-10-22T13:03:50.435Z,3.90
2022-10-22T13:06:13.593Z,2.70
2022-10-22T13:08:28.902Z,2.00
2022-10-22T13:10:42.159Z,1.10
2022-10-22T13:12:56.680Z,2.10
2022-10-22T13:15:25.175Z,1.60
2022-10-22T13:17:51.316Z,2.60
2022-10-22T13:20:07.246Z,3.20
2022-10-22T13:22:35.968Z,1.70
2022-10-22T13:24:53.132Z,1.60
2022-10-22T13:27:05.176Z,2.20
2022-10-22T13:29:20.976Z,2.20
2022-10-22T13:31:33.931Z,2.10
2022-10-22T13:33:46.029Z,2.60
2022-10-22T13:38:05.242Z,2.20
2022-10-22T13:40:18.653Z,3.50
2022-10-22T13:42:29.005Z,5.20
2022-10-22T13:44:39.776Z,5.70
2022-10-22T13:46:50.717Z,2.40
2022-10-22T13:49:02.049Z,6.00
2022-10-22T13:51:19.612Z,6.70
2022-10-22T13:53:31.640Z,4.40
2022-10-22T13:55:41.732Z,3.70
2022-10-22T13:57:52.839Z,5.00
2022-10-22T14:00:02.952Z,6.50
2022-10-22T14:02:25.589Z,4.10
2022-10-22T14:04:38.530Z,4.80
2022-10-22T14:06:48.682Z,3.50
2022-10-22T14:09:01.221Z,1.40
2022-10-22T14:13:21.808Z,7.90
2022-10-22T14:15:36.963Z,7.40
2022-10-22T14:19:55.650Z,5.20
2022-10-22T14:22:05.847Z,5.40
2022-10-22T14:24:16.281Z,4.10
2022-10-22T14:26:30.820Z,6.30
2022-10-22T14:29:04.346Z,5.40
2022-10-22T14:31:13.682Z,2.50
2022-10-22T14:33:28.952Z,2.00
2022-10-22T14:35:41.736Z,3.30
2022-10-22T14:37:52.319Z,3.60
2022-10-22T14:40:03.237Z,4.30
2022-10-22T14:42:17.253Z,4.90
2022-10-22T14:44:27.151Z,2.90
2022-10-22T14:46:37.471Z,2.70
2022-10-22T14:48:47.745Z,3.80
2022-10-22T14:50:59.013Z,5.80
2022-10-22T14:53:09.231Z,5.50
2022-10-22T14:55:21.617Z,7.50
2022-10-22T14:57:31.975Z,4.20
2022-10-22T14:59:41.949Z,1.60
2022-10-22T15:01:52.237Z,2.40
2022-10-22T15:04:02.290Z,1.50
2022-10-22T15:06:13.549Z,1.40
2022-10-22T15:08:23.672Z,1.70
2022-10-22T15:10:33.902Z,1.40
2022-10-22T15:12:44.025Z,2.10
2022-10-22T15:14:54.215Z,1.30
2022-10-22T15:17:04.369Z,1.90
2022-10-22T15:19:15.507Z,1.00
2022-10-22T15:21:26.593Z,1.10
2022-10-22T15:23:39.801Z,1.50
2022-10-22T15:25:49.785Z,1.60
2022-10-22T15:28:07.441Z,1.40
2022-10-22T15:30:19.758Z,2.40
2022-10-22T15:32:30.340Z,1.60
2022-10-22T15:34:42.218Z,1.80
2022-10-22T15:36:52.318Z,2.60
2022-10-22T15:39:02.365Z,2.60
2022-10-22T15:41:15.017Z,1.90
2022-10-22T15:43:26.459Z,1.80
2022-10-22T15:45:36.610Z,2.40
2022-10-22T15:47:50.131Z,2.80
2022-10-22T15:50:00.394Z,1.30
2022-10-22T15:52:10.801Z,1.00
2022-10-22T15:54:23.030Z,2.30
2022-10-22T15:56:35.566Z,1.40
2022-10-22T16:00:54.029Z,2.00
2022-10-22T16:03:05.182Z,1.40
2022-10-22T16:05:15.774Z,1.30
2022-10-22T16:07:26.223Z,1.60
2022-10-22T16:09:36.787Z,1.70
2022-10-22T16:11:48.397Z,3.00
2022-10-22T16:14:02.281Z,1.50
2022-10-22T16:16:13.142Z,1.50
2022-10-22T16:18:24.227Z,2.60
2022-10-22T16:20:34.187Z,1.10
2022-10-22T16:22:45.241Z,1.60
2022-10-22T16:24:55.322Z,2.70
2022-10-22T16:27:05.476Z,1.40
2022-10-22T16:29:15.744Z,2.20
2022-10-22T16:31:25.957Z,1.60
2022-10-22T16:33:41.504Z,2.20
2022-10-22T16:35:56.979Z,2.00
2022-10-22T16:40:17.163Z,2.00
2022-10-22T16:42:27.057Z,2.00
2022-10-22T16:44:38.765Z,1.30
2022-10-22T16:46:49.142Z,2.10
2022-10-22T16:48:59.306Z,1.60
2022-10-22T16:51:12.510Z,5.30
2022-10-22T16:53:22.731Z,4.50
2022-10-22T16:55:33.124Z,8.70
2022-10-22T16:57:43.467Z,11.80
2022-10-22T16:59:53.699Z,14.60
2022-10-22T17:04:19.000Z,11.20
2022-10-22T17:06:30.173Z,6.60
2022-10-22T17:08:41.362Z,11.00
2022-10-22T17:10:51.451Z,5.90
2022-10-22T17:13:02.536Z,10.60
2022-10-22T17:15:14.176Z,10.60
2022-10-22T17:17:24.236Z,5.00
2022-10-22T17:19:34.692Z,2.80
2022-10-22T17:21:45.243Z,2.60
2022-10-22T17:23:58.685Z,1.80
2022-10-22T17:26:10.473Z,2.40
2022-10-22T17:28:20.435Z,3.10
2022-10-22T17:30:30.880Z,2.20
2022-10-22T17:32:42.499Z,5.40
2022-10-22T17:34:55.417Z,2.80
2022-10-22T17:37:08.218Z,2.00
2022-10-22T17:39:20.559Z,2.30
2022-10-22T17:41:32.501Z,2.10
2022-10-22T17:43:42.711Z,2.30
2022-10-22T17:45:53.077Z,2.00
2022-10-22T17:48:03.318Z,4.70
2022-10-22T17:50:14.682Z,4.90
2022-10-22T17:52:24.645Z,3.40
2022-10-22T17:54:36.183Z,4.80
2022-10-22T17:56:46.350Z,4.70
2022-10-22T17:58:57.605Z,4.30
2022-10-22T18:01:08.403Z,2.30
2022-10-22T18:03:18.470Z,2.80
2022-10-22T18:05:30.364Z,5.50
2022-10-22T18:07:40.484Z,5.10
2022-10-22T18:09:50.807Z,3.80
2022-10-22T18:12:03.275Z,5.00
2022-10-22T18:16:21.668Z,4.40
2022-10-22T18:18:31.609Z,2.80
2022-10-22T18:20:41.774Z,4.20
2022-10-22T18:22:51.901Z,6.00
2022-10-22T18:25:02.076Z,4.30
2022-10-22T18:27:12.495Z,6.40
2022-10-22T18:29:23.094Z,9.20
2022-10-22T18:31:33.433Z,11.90
2022-10-22T18:33:44.938Z,11.80
2022-10-22T18:35:55.459Z,11.00
2022-10-22T18:38:05.385Z,5.60
2022-10-22T18:40:16.750Z,8.00
2022-10-22T18:42:29.182Z,7.20
2022-10-22T18:44:42.977Z,4.90
2022-10-22T18:46:53.107Z,5.40
2022-10-22T18:49:03.283Z,4.10
2022-10-22T18:51:16.260Z,2.60
2022-10-22T18:53:26.457Z,1.60
2022-10-22T18:55:40.139Z,4.20
2022-10-22T18:57:50.338Z,2.30
2022-10-22T19:00:00.539Z,2.30
2022-10-22T19:02:11.258Z,1.80
2022-10-22T19:04:21.274Z,1.80
2022-10-22T19:06:34.430Z,3.90
2022-10-22T19:08:49.288Z,5.30
2022-10-22T19:11:02.013Z,4.60
2022-10-22T19:13:13.245Z,5.80
2022-10-22T19:15:23.554Z,3.20
2022-10-22T19:17:34.914Z,2.60
2022-10-22T19:19:46.011Z,1.80
2022-10-22T19:21:57.013Z,3.20
2022-10-22T19:24:08.008Z,3.90
2022-10-22T19:26:21.988Z,6.90
2022-10-22T19:28:32.267Z,3.90
2022-10-22T19:30:45.283Z,9.80
2022-10-22T19:32:55.326Z,5.00
2022-10-22T19:35:05.720Z,5.40
2022-10-22T19:37:15.829Z,4.90
2022-10-22T19:39:25.771Z,3.60
2022-10-22T19:41:37.208Z,2.50
2022-10-22T19:43:50.160Z,2.20
2022-10-22T19:46:00.268Z,2.40
2022-10-22T19:48:10.871Z,1.70
2022-10-22T19:50:21.957Z,9.70
2022-10-22T19:52:31.994Z,6.90
2022-10-22T19:54:45.109Z,5.80
2022-10-22T19:56:56.308Z,4.00
2022-10-22T19:59:07.332Z,2.60
2022-10-22T20:01:19.209Z,2.40
2022-10-22T20:03:29.426Z,6.10
2022-10-22T20:05:43.356Z,7.00
2022-10-22T20:07:53.576Z,15.40
2022-10-22T20:10:03.725Z,5.80
2022-10-22T20:12:13.914Z,4.00
2022-10-22T20:14:24.261Z,2.20
2022-10-22T20:16:36.306Z,2.30
2022-10-22T20:18:46.631Z,9.70
2022-10-22T20:20:56.808Z,11.70
2022-10-22T20:23:09.035Z,14.30
2022-10-22T20:25:19.437Z,13.50
2022-10-22T20:27:29.675Z,9.80
2022-10-22T20:29:41.001Z,11.40
2022-10-22T20:31:51.595Z,3.70
2022-10-22T20:34:03.881Z,9.70
2022-10-22T20:38:26.552Z,4.40
2022-10-22T20:40:38.361Z,8.30
2022-10-22T20:42:50.109Z,2.00
2022-10-22T20:45:01.526Z,7.80
2022-10-22T20:47:11.859Z,9.80
2022-10-22T20:49:22.590Z,12.00
2022-10-22T20:51:34.355Z,9.40
2022-10-22T20:53:44.539Z,6.90
2022-10-22T20:55:57.913Z,15.60
2022-10-22T20:58:07.978Z,10.00
2022-10-22T21:00:19.783Z,13.20
2022-10-22T21:02:30.287Z,8.00
2022-10-22T21:04:42.763Z,5.80
2022-10-22T21:06:56.467Z,5.20
2022-10-22T21:09:06.768Z,11.80
2022-10-22T21:11:16.817Z,11.80
2022-10-22T21:13:27.092Z,12.60
2022-10-22T21:15:37.572Z,15.30
2022-10-22T21:17:47.689Z,12.10
2022-10-22T21:19:57.686Z,6.30
2022-10-22T21:22:07.819Z,6.30
2022-10-22T21:24:18.306Z,14.00
2022-10-22T21:26:28.601Z,10.90
2022-10-22T21:28:40.112Z,12.00
2022-10-22T21:30:50.674Z,19.10
2022-10-22T21:33:00.865Z,9.40
2022-10-22T21:35:11.934Z,18.30
2022-10-22T21:37:23.270Z,19.80
2022-10-22T21:39:35.517Z,13.40
2022-10-22T21:41:47.924Z,25.50
2022-10-22T21:43:58.029Z,24.70
2022-10-22T21:46:13.541Z,25.00
2022-10-22T21:48:24.388Z,21.90
2022-10-22T21:50:35.177Z,17.80
2022-10-22T21:52:45.428Z,9.80
2022-10-22T21:54:55.531Z,12.40
2022-10-22T21:57:05.581Z,12.30
2022-10-22T21:59:16.385Z,14.70
2022-10-22T22:01:27.390Z,14.20
2022-10-22T22:03:37.892Z,13.50
2022-10-22T22:05:48.034Z,12.00
2022-10-22T22:07:58.199Z,12.90
2022-10-22T22:10:09.508Z,15.90
2022-10-22T22:12:19.478Z,18.70
2022-10-22T22:14:29.664Z,12.90
2022-10-22T22:16:40.326Z,19.30
2022-10-22T22:18:50.619Z,17.70
2022-10-22T22:21:01.028Z,15.10
2022-10-22T22:23:11.290Z,18.60
2022-10-22T22:25:21.499Z,21.70
2022-10-22T22:27:31.502Z,14.70
2022-10-22T22:29:41.746Z,17.90
2022-10-22T22:31:52.109Z,17.90
2022-10-22T22:34:06.706Z,15.20
2022-10-22T22:36:17.130Z,16.90
2022-10-22T22:38:28.291Z,15.40
2022-10-22T22:40:39.951Z,16.40
2022-10-22T22:42:50.217Z,20.20
2022-10-22T22:45:00.426Z,15.90
2022-10-22T22:47:10.672Z,17.80
2022-10-22T22:49:20.724Z,16.80
2022-10-22T22:51:33.401Z,14.50
2022-10-22T22:53:43.613Z,16.40
2022-10-22T22:55:53.708Z,14.90
2022-10-22T22:58:04.190Z,15.40
2022-10-22T23:00:16.871Z,16.90
2022-10-22T23:02:29.613Z,14.00
2022-10-22T23:04:40.279Z,15.10
2022-10-22T23:06:50.630Z,12.80
2022-10-22T23:09:01.466Z,13.60
2022-10-22T23:11:14.933Z,13.00
2022-10-22T23:13:25.021Z,12.10
2022-10-22T23:15:34.951Z,12.10
2022-10-22T23:17:45.128Z,12.00
2022-10-22T23:19:55.502Z,8.40
2022-10-22T23:22:05.619Z,10.60
2022-10-22T23:24:17.059Z,13.70
2022-10-22T23:26:29.171Z,13.70
2022-10-22T23:28:39.390Z,7.60
2022-10-22T23:30:50.311Z,9.00
2022-10-22T23:33:00.312Z,8.90
2022-10-22T23:35:12.062Z,8.00
2022-10-22T23:37:22.382Z,4.80
2022-10-22T23:39:32.937Z,5.60
2022-10-22T23:41:43.014Z,7.50
2022-10-22T23:43:54.234Z,9.40
2022-10-22T23:46:04.622Z,4.70
2022-10-22T23:48:14.702Z,4.60
2022-10-22T23:50:24.685Z,6.20
2022-10-22T23:52:34.859Z,5.60
2022-10-22T23:54:45.134Z,9.30
2022-10-22T23:56:55.300Z,11.90
2022-10-22T23:59:06.275Z,9.80
